Time;durP1;ratioP1;P1;durP2;ratioP2;P2;SDS_P1;SDS_P2;PMS_P1;PMS_P2;Temp;Humidity;BMP_temperature;BMP_pressure;BME280_temperature;BME280_humidity;BME280_pressure;Samples;Min_cycle;Max_cycle;Signal;HPM_P1;HPM_P2
2023/06/01 00:02:27;;;;;;;;;;;;;;;;;;4877602;29;2066;-56
2023/06/01 00:04:54;;;;;;;;;;;;;;;;;;4878177;29;1892;-57
2023/06/01 00:07:23;;;;;;;;;;;;;;;;;;4877709;29;1927;-52
2023/06/01 00:09:51;;;;;;;;;;;;;;;;;;4877760;29;2623;-56
2023/06/01 00:12:18;;;;;;;;;;;;;;;;;;4877656;29;1875;-60
2023/06/01 00:14:47;;;;;;;;;;;;;;;;;;4877961;29;2007;-56
2023/06/01 00:17:14;;;;;;;;;;;;;;;;;;4876812;29;2037;-59
2023/06/01 00:19:44;;;;;;;;;;;;;;;;;;4877866;29;2063;-59
2023/06/01 00:22:12;;;;;;;;;;;;;;;;;;4877812;29;2253;-52
2023/06/01 00:24:39;;;;;;;;;;;;;;;;;;4877443;29;2060;-52
2023/06/01 00:27:07;;;;;;;;;;;;;;;;;;4877503;29;2162;-55
2023/06/01 00:29:34;;;;;;;;;;;;;;;;;;4875954;29;2174;-51
2023/06/01 00:32:01;;;;;;;;;;;;;;;;;;4877378;29;2597;-57
2023/06/01 00:34:28;;;;;;;;;;;;;;;;;;4876453;29;1911;-55
2023/06/01 00:36:56;;;;;;;;;;;;;;;;;;4877051;29;2097;-59
2023/06/01 00:39:23;;;;;;;;;;;;;;;;;;4877147;29;2098;-56
2023/06/01 00:41:50;;;;;;;;;;;;;;;;;;4877474;29;2152;-52
2023/06/01 00:44:20;;;;;;;;;;;;;;;;;;4877202;29;2330;-57
2023/06/01 00:46:47;;;;;;;;;;;;;;;;;;4876092;29;2202;-54
2023/06/01 00:49:15;;;;;;;;;;;;;;;;;;4875807;29;2159;-57
2023/06/01 00:51:42;;;;;;;;;;;;;;;;;;4877242;29;2093;-58
2023/06/01 00:54:11;;;;;;;;;;;;;;;;;;4884871;29;2033;-55
2023/06/01 00:56:38;;;;;;;;;;;;;;;;;;4895491;29;2078;-58
2023/06/01 00:59:05;;;;;;;;;;;;;;;;;;4877366;29;2481;-55
2023/06/01 01:01:33;;;;;;;;;;;;;;;;;;4876899;29;2328;-58
2023/06/01 01:04:00;;;;;;;;;;;;;;;;;;4876904;29;2189;-54
2023/06/01 01:06:34;;;;;;;;;;;;;;;;;;4876839;29;2024;-56
2023/06/01 01:09:01;;;;;;;;;;;;;;;;;;4888486;29;2118;-57
2023/06/01 01:11:30;;;;;;;;;;;;;;;;;;4893979;29;2176;-54
2023/06/01 01:13:58;;;;;;;;;;;;;;;;;;4895462;29;2210;-56
2023/06/01 01:16:31;;;;;;;;;;;;;;;;;;4894039;29;2208;-55
2023/06/01 01:19:17;;;;;;;;;;;;;;;;;;4895352;29;2206;-56
2023/06/01 01:21:50;;;;;;;;;;;;;;;;;;4894299;29;2254;-58
2023/06/01 01:24:28;;;;;;;;;;;;;;;;;;4895459;29;2257;-56
2023/06/01 01:27:10;;;;;;;;;;;;;;;;;;4893716;29;2156;-54
2023/06/01 01:29:37;;;;;;;;;;;;;;;;;;4895300;29;2115;-58
2023/06/01 01:32:05;;;;;;;;;;;;;;;;;;4893837;29;2286;-54
2023/06/01 01:34:33;;;;;;;;;;;;;;;;;;4893468;29;2258;-56
2023/06/01 01:37:01;;;;;;;;;;;;;;;;;;4894983;29;2233;-53
2023/06/01 01:39:29;;;;;;;;;;;;;;;;;;4893860;29;2156;-56
2023/06/01 01:41:56;;;;;;;;;;;;;;;;;;4893975;29;2255;-56
2023/06/01 01:44:26;;;;;;;;;;;;;;;;;;4894955;29;2672;-60
2023/06/01 01:46:58;;;;;;;;;;;;;;;;;;4893801;29;2127;-53
2023/06/01 01:49:33;;;;;;;;;;;;;;;;;;4893709;29;2080;-56
2023/06/01 01:52:09;;;;;;;;;;;;;;;;;;4894669;29;2132;-58
2023/06/01 01:54:38;;;;;;;;;;;;;;;;;;4899971;29;2376;-57
2023/06/01 01:57:05;;;;;;;;;;;;;;;;;;4894401;29;2237;-56
2023/06/01 01:59:33;;;;;;;;;;;;;;;;;;4878740;29;2116;-54
2023/06/01 02:02:00;;;;;;;;;;;;;;;;;;4879068;29;2117;-56
2023/06/01 02:04:28;;;;;;;;;;;;;;;;;;4879727;29;2281;-57
2023/06/01 02:06:57;;;;;;;;;;;;;;;;;;4878613;29;2449;-55
2023/06/01 02:09:28;;;;;;;;;;;;;;;;;;4878729;29;2113;-59
2023/06/01 02:11:55;;;;;;;;;;;;;;;;;;4897322;29;2329;-56
2023/06/01 02:14:26;;;;;;;;;;;;;;;;;;4887919;29;2372;-56
2023/06/01 02:16:54;;;;;;;;;;;;;;;;;;4879677;29;2114;-54
2023/06/01 02:19:22;;;;;;;;;;;;;;;;;;4878716;29;2138;-53
2023/06/01 02:21:49;;;;;;;;;;;;;;;;;;4878672;29;2200;-53
2023/06/01 02:24:17;;;;;;;;;;;;;;;;;;4878817;29;2602;-52
2023/06/01 02:26:51;;;;;;;;;;;;;;;;;;4879853;29;2163;-59
2023/06/01 02:29:21;;;;;;;;;;;;;;;;;;4888319;29;2521;-54
2023/06/01 02:31:50;;;;;;;;;;;;;;;;;;4898242;29;2092;-57
2023/06/01 02:34:18;;;;;;;;;;;;;;;;;;4897068;29;2340;-58
2023/06/01 02:36:46;;;;;;;;;;;;;;;;;;4896938;29;2200;-60
2023/06/01 02:39:14;;;;;;;;;;;;;;;;;;4896610;29;2167;-60
2023/06/01 02:41:42;;;;;;;;;;;;;;;;;;4896806;29;2354;-51
2023/06/01 02:44:09;;;;;;;;;;;;;;;;;;4898090;29;2315;-57
2023/06/01 02:46:36;;;;;;;;;;;;;;;;;;4897957;29;2353;-56
2023/06/01 02:49:03;;;;;;;;;;;;;;;;;;4898044;29;2248;-58
2023/06/01 02:51:34;;;;;;;;;;;;;;;;;;4896726;29;2170;-57
2023/06/01 02:54:08;;;;;;;;;;;;;;;;;;4896688;29;2166;-55
2023/06/01 02:56:35;;;;;;;;;;;;;;;;;;4896612;29;2182;-58
2023/06/01 02:59:18;;;;;;;;;;;;;;;;;;4879870;29;2244;-54
2023/06/01 03:01:50;;;;;;;;;;;;;;;;;;4894697;29;2178;-53
2023/06/01 03:04:18;;;;;;;;;;;;;;;;;;4896362;29;2122;-54
2023/06/01 03:06:49;;;;;;;;;;;;;;;;;;4896599;29;2147;-56
2023/06/01 03:09:51;;;;;;;;;;;;;;;;;;4894019;29;2087;-56
2023/06/01 03:12:21;;;;;;;;;;;;;;;;;;4897824;29;2052;-55
2023/06/01 03:14:49;;;;;;;;;;;;;;;;;;4897729;29;2088;-61
2023/06/01 03:17:16;;;;;;;;;;;;;;;;;;4895849;29;2748;-59
2023/06/01 03:19:44;;;;;;;;;;;;;;;;;;4896476;29;2397;-52
2023/06/01 03:22:22;;;;;;;;;;;;;;;;;;4896295;29;2621;-56
2023/06/01 03:24:49;;;;;;;;;;;;;;;;;;4896237;29;2317;-56
2023/06/01 03:27:22;;;;;;;;;;;;;;;;;;4882698;29;2350;-60
2023/06/01 03:29:49;;;;;;;;;;;;;;;;;;4877328;29;2010;-60
2023/06/01 03:32:17;;;;;;;;;;;;;;;;;;4877258;29;2167;-54
2023/06/01 03:34:44;;;;;;;;;;;;;;;;;;4878419;29;2113;-54
2023/06/01 03:37:12;;;;;;;;;;;;;;;;;;4877000;29;2140;-51
2023/06/01 03:39:39;;;;;;;;;;;;;;;;;;4878177;29;2342;-58
2023/06/01 03:42:09;;;;;;;;;;;;;;;;;;4877165;29;2097;-55
2023/06/01 03:44:39;;;;;;;;;;;;;;;;;;4876725;29;2345;-58
2023/06/01 03:47:07;;;;;;;;;;;;;;;;;;4876809;29;1998;-50
2023/06/01 03:49:34;;;;;;;;;;;;;;;;;;4877011;29;2184;-61
2023/06/01 03:52:05;;;;;;;;;;;;;;;;;;4876870;29;2168;-51
2023/06/01 03:54:33;;;;;;;;;;;;;;;;;;4888926;29;2127;-51
2023/06/01 03:57:02;;;;;;;;;;;;;;;;;;4892411;29;2341;-50
2023/06/01 03:59:29;;;;;;;;;;;;;;;;;;4878070;29;2232;-52
2023/06/01 04:01:57;;;;;;;;;;;;;;;;;;4876784;29;2272;-61
2023/06/01 04:04:26;;;;;;;;;;;;;;;;;;4876744;29;2256;-59
2023/06/01 04:06:54;;;;;;;;;;;;;;;;;;4878072;29;2416;-63
2023/06/01 04:09:22;;;;;;;;;;;;;;;;;;4876474;29;2314;-49
2023/06/01 04:11:49;;;;;;;;;;;;;;;;;;4878564;29;2280;-57
2023/06/01 04:14:16;;;;;;;;;;;;;;;;;;4894742;29;2402;-51
2023/06/01 04:16:43;;;;;;;;;;;;;;;;;;4896520;29;2150;-58
2023/06/01 04:19:10;;;;;;;;;;;;;;;;;;4895327;29;2298;-61
2023/06/01 04:21:38;;;;;;;;;;;;;;;;;;4895123;29;2307;-61
2023/06/01 04:24:07;;;;;;;;;;;;;;;;;;4894887;29;2210;-59
2023/06/01 04:26:37;;;;;;;;;;;;;;;;;;4888170;29;2150;-52
2023/06/01 04:29:11;;;;;;;;;;;;;;;;;;4887839;29;2116;-50
2023/06/01 04:31:39;;;;;;;;;;;;;;;;;;4896356;29;2007;-58
2023/06/01 04:34:06;;;;;;;;;;;;;;;;;;4894877;29;2170;-50
2023/06/01 04:36:38;;;;;;;;;;;;;;;;;;4895478;29;2142;-50
2023/06/01 04:39:08;;;;;;;;;;;;;;;;;;4894390;29;2090;-51
2023/06/01 04:41:37;;;;;;;;;;;;;;;;;;4894780;29;2059;-50
2023/06/01 04:44:08;;;;;;;;;;;;;;;;;;4895942;29;1920;-51
2023/06/01 04:46:39;;;;;;;;;;;;;;;;;;4889977;29;2020;-52
2023/06/01 04:49:07;;;;;;;;;;;;;;;;;;4894079;29;2036;-59
2023/06/01 04:51:36;;;;;;;;;;;;;;;;;;4895852;29;2016;-53
2023/06/01 04:54:04;;;;;;;;;;;;;;;;;;4896652;29;1996;-49
2023/06/01 04:56:32;;;;;;;;;;;;;;;;;;4894292;29;2210;-51
2023/06/01 04:59:00;;;;;;;;;;;;;;;;;;4878376;29;1990;-60
2023/06/01 05:01:30;;;;;;;;;;;;;;;;;;4876962;29;2260;-51
2023/06/01 05:03:58;;;;;;;;;;;;;;;;;;4877434;29;2099;-51
2023/06/01 05:06:26;;;;;;;;;;;;;;;;;;4875867;29;2462;-52
2023/06/01 05:08:53;;;;;;;;;;;;;;;;;;4875525;29;2285;-51
2023/06/01 05:11:22;;;;;;;;;;;;;;;;;;4875528;29;1959;-52
2023/06/01 05:13:51;;;;;;;;;;;;;;;;;;4886599;29;2170;-49
2023/06/01 05:16:19;;;;;;;;;;;;;;;;;;4895541;29;2106;-48
2023/06/01 05:18:48;;;;;;;;;;;;;;;;;;4893659;29;2200;-62
2023/06/01 05:21:15;;;;;;;;;;;;;;;;;;4895351;29;2204;-54
2023/06/01 05:23:43;;;;;;;;;;;;;;;;;;4894132;29;2251;-49
2023/06/01 05:26:11;;;;;;;;;;;;;;;;;;4894142;29;2475;-46
2023/06/01 05:28:38;;;;;;;;;;;;;;;;;;4894070;29;1996;-48
2023/06/01 05:31:09;;;;;;;;;;;;;;;;;;4893938;29;2182;-50
2023/06/01 05:33:43;;;;;;;;;;;;;;;;;;4894129;29;2070;-59
2023/06/01 05:36:11;;;;;;;;;;;;;;;;;;4893570;29;2102;-50
2023/06/01 05:38:39;;;;;;;;;;;;;;;;;;4895342;29;2155;-49
2023/06/01 05:41:06;;;;;;;;;;;;;;;;;;4893965;29;2175;-50
2023/06/01 05:43:36;;;;;;;;;;;;;;;;;;4895429;29;2268;-50
2023/06/01 05:46:06;;;;;;;;;;;;;;;;;;4893957;29;2120;-50
2023/06/01 05:48:34;;;;;;;;;;;;;;;;;;4894736;29;2618;-46
2023/06/01 05:51:03;;;;;;;;;;;;;;;;;;4893992;29;2244;-60
2023/06/01 05:53:31;;;;;;;;;;;;;;;;;;4894575;29;2228;-58
2023/06/01 05:55:58;;;;;;;;;;;;;;;;;;4895513;29;2184;-49
2023/06/01 05:58:25;;;;;;;;;;;;;;;;;;4881733;29;2029;-50
2023/06/01 06:00:52;;;;;;;;;;;;;;;;;;4875408;29;2117;-51
2023/06/01 06:03:21;;;;;;;;;;;;;;;;;;4876540;29;2034;-50
2023/06/01 06:05:48;;;;;;;;;;;;;;;;;;4876162;29;2091;-56
2023/06/01 06:08:15;;;;;;;;;;;;;;;;;;4876254;29;2048;-47
2023/06/01 06:10:43;;;;;;;;;;;;;;;;;;4876242;29;2138;-62
2023/06/01 06:13:12;;;;;;;;;;;;;;;;;;4876273;29;2467;-54
2023/06/01 06:15:39;;;;;;;;;;;;;;;;;;4876092;29;2139;-51
2023/06/01 06:18:07;;;;;;;;;;;;;;;;;;4877183;29;2121;-60
2023/06/01 06:20:34;;;;;;;;;;;;;;;;;;4889562;29;2106;-62
2023/06/01 06:23:01;;;;;;;;;;;;;;;;;;4894704;29;2030;-62
2023/06/01 06:25:28;;;;;;;;;;;;;;;;;;4894745;29;2251;-52
2023/06/01 06:27:56;;;;;;;;;;;;;;;;;;4895013;29;2045;-55
2023/06/01 06:30:24;;;;;;;;;;;;;;;;;;4895126;29;2027;-46
2023/06/01 06:32:52;;;;;;;;;;;;;;;;;;4894690;29;2326;-61
2023/06/01 06:35:19;;;;;;;;;;;;;;;;;;4894538;29;2200;-61
2023/06/01 06:37:46;;;;;;;;;;;;;;;;;;4895609;29;2031;-61
2023/06/01 06:40:13;;;;;;;;;;;;;;;;;;4897681;29;2001;-50
2023/06/01 06:42:41;;;;;;;;;;;;;;;;;;4897970;29;2099;-53
2023/06/01 06:45:08;;;;;;;;;;;;;;;;;;4898042;29;2019;-60
2023/06/01 06:47:35;;;;;;;;;;;;;;;;;;4898165;29;2170;-48
2023/06/01 06:50:03;;;;;;;;;;;;;;;;;;4897718;29;2004;-60
2023/06/01 06:52:30;;;;;;;;;;;;;;;;;;4897951;29;2315;-50
2023/06/01 06:54:57;;;;;;;;;;;;;;;;;;4899165;29;2363;-60
2023/06/01 06:57:24;;;;;;;;;;;;;;;;;;4891977;29;2177;-60
2023/06/01 06:59:52;;;;;;;;;;;;;;;;;;4879003;29;2271;-49
2023/06/01 07:02:19;;;;;;;;;;;;;;;;;;4879143;29;2040;-60
2023/06/01 07:04:46;;;;;;;;;;;;;;;;;;4879228;29;2380;-48
2023/06/01 07:07:13;;;;;;;;;;;;;;;;;;4897901;29;2176;-49
2023/06/01 07:09:41;;;;;;;;;;;;;;;;;;4897369;29;2231;-57
2023/06/01 07:12:12;;;;;;;;;;;;;;;;;;4897304;29;2223;-49
2023/06/01 07:14:39;;;;;;;;;;;;;;;;;;4897467;29;2138;-60
2023/06/01 07:17:06;;;;;;;;;;;;;;;;;;4897160;29;2063;-60
2023/06/01 07:19:34;;;;;;;;;;;;;;;;;;4898258;29;2197;-60
2023/06/01 07:22:01;;;;;;;;;;;;;;;;;;4897172;29;2321;-60
2023/06/01 07:24:29;;;;;;;;;;;;;;;;;;4897311;29;2135;-59
2023/06/01 07:26:57;;;;;;;;;;;;;;;;;;4897396;29;2047;-61
2023/06/01 07:29:24;;;;;;;;;;;;;;;;;;4897179;29;1980;-60
2023/06/01 07:31:52;;;;;;;;;;;;;;;;;;4897383;29;2225;-55
2023/06/01 07:34:20;;;;;;;;;;;;;;;;;;4897247;29;1958;-51
2023/06/01 07:36:48;;;;;;;;;;;;;;;;;;4897160;29;2141;-59
2023/06/01 07:39:16;;;;;;;;;;;;;;;;;;4897062;29;2128;-60
2023/06/01 07:41:46;;;;;;;;;;;;;;;;;;4897227;29;1896;-61
2023/06/01 07:44:18;;;;;;;;;;;;;;;;;;4896997;29;1928;-56
2023/06/01 07:46:45;;;;;;;;;;;;;;;;;;4897083;29;2064;-60
2023/06/01 07:49:13;;;;;;;;;;;;;;;;;;4896224;29;1986;-61
2023/06/01 07:51:41;;;;;;;;;;;;;;;;;;4894749;29;2199;-46
2023/06/01 07:54:09;;;;;;;;;;;;;;;;;;4886644;29;2051;-43
2023/06/01 07:56:37;;;;;;;;;;;;;;;;;;4896673;29;1945;-44
2023/06/01 07:59:05;;;;;;;;;;;;;;;;;;4878063;29;2313;-58
2023/06/01 08:01:32;;;;;;;;;;;;;;;;;;4878194;29;2068;-59
2023/06/01 08:04:01;;;;;;;;;;;;;;;;;;4878049;29;1789;-53
2023/06/01 08:06:35;;;;;;;;;;;;;;;;;;4878005;29;2029;-45
2023/06/01 08:09:03;;;;;;;;;;;;;;;;;;4877815;29;1978;-44
2023/06/01 08:11:31;;;;;;;;;;;;;;;;;;4896377;29;2250;-49
2023/06/01 08:14:04;;;;;;;;;;;;;;;;;;4896645;29;1726;-47
2023/06/01 08:16:31;;;;;;;;;;;;;;;;;;4896371;29;1997;-49
2023/06/01 08:18:58;;;;;;;;;;;;;;;;;;4896715;29;2086;-49
2023/06/01 08:21:26;;;;;;;;;;;;;;;;;;4896385;29;2135;-45
2023/06/01 08:23:57;;;;;;;;;;;;;;;;;;4878287;29;1991;-62
2023/06/01 08:26:25;;;;;;;;;;;;;;;;;;4877636;29;2043;-56
2023/06/01 08:28:52;;;;;;;;;;;;;;;;;;4877335;29;2282;-49
2023/06/01 08:31:20;;;;;;;;;;;;;;;;;;4877430;29;2129;-63
2023/06/01 08:33:48;;;;;;;;;;;;;;;;;;4877379;29;2136;-47
2023/06/01 08:36:15;;;;;;;;;;;;;;;;;;4876605;29;2425;-57
2023/06/01 08:38:43;;;;;;;;;;;;;;;;;;4877450;29;2044;-53
2023/06/01 08:41:17;;;;;;;;;;;;;;;;;;4877671;29;2310;-64
2023/06/01 08:43:50;;;;;;;;;;;;;;;;;;4877222;29;2072;-60
2023/06/01 08:46:20;;;;;;;;;;;;;;;;;;4877261;29;2531;-47
2023/06/01 08:48:48;;;;;;;;;;;;;;;;;;4876963;29;2183;-48
2023/06/01 08:51:15;;;;;;;;;;;;;;;;;;4877343;29;2243;-51
2023/06/01 08:53:44;;;;;;;;;;;;;;;;;;4883274;29;1978;-51
2023/06/01 08:56:12;;;;;;;;;;;;;;;;;;4895815;29;2020;-53
2023/06/01 08:58:41;;;;;;;;;;;;;;;;;;4880251;29;2441;-56
2023/06/01 09:01:08;;;;;;;;;;;;;;;;;;4876334;29;2068;-61
2023/06/01 09:03:35;;;;;;;;;;;;;;;;;;4876915;29;2104;-62
2023/06/01 09:06:05;;;;;;;;;;;;;;;;;;4876854;29;2418;-52
2023/06/01 09:08:35;;;;;;;;;;;;;;;;;;4895417;29;2227;-59
2023/06/01 09:11:03;;;;;;;;;;;;;;;;;;4895403;29;2475;-62
2023/06/01 09:13:34;;;;;;;;;;;;;;;;;;4895520;29;2118;-55
2023/06/01 09:16:01;;;;;;;;;;;;;;;;;;4876467;29;2313;-63
2023/06/01 09:18:28;;;;;;;;;;;;;;;;;;4876808;29;2243;-62
2023/06/01 09:21:16;;;;;;;;;;;;;;;;;;4876517;29;2013;-50
2023/06/01 09:23:43;;;;;;;;;;;;;;;;;;4876920;29;2216;-59
2023/06/01 09:26:11;;;;;;;;;;;;;;;;;;4876446;29;2290;-62
2023/06/01 09:28:58;;;;;;;;;;;;;;;;;;4876478;29;2139;-61
2023/06/01 09:31:34;;;;;;;;;;;;;;;;;;4876325;29;2592;-63
2023/06/01 09:34:04;;;;;;;;;;;;;;;;;;4876400;29;2214;-53
2023/06/01 09:36:32;;;;;;;;;;;;;;;;;;4874785;29;2090;-54
2023/06/01 09:39:07;;;;;;;;;;;;;;;;;;4876180;29;2152;-57
2023/06/01 09:41:45;;;;;;;;;;;;;;;;;;4876461;29;2124;-65
2023/06/01 09:44:13;;;;;;;;;;;;;;;;;;4876555;29;2154;-52
2023/06/01 09:46:50;;;;;;;;;;;;;;;;;;4876461;29;2009;-55
2023/06/01 09:49:21;;;;;;;;;;;;;;;;;;4875988;29;2309;-51
2023/06/01 09:51:48;;;;;;;;;;;;;;;;;;4876467;29;2142;-61
2023/06/01 09:54:25;;;;;;;;;;;;;;;;;;4886950;29;2211;-63
2023/06/01 09:56:53;;;;;;;;;;;;;;;;;;4894021;29;1961;-52
2023/06/01 09:59:40;;;;;;;;;;;;;;;;;;4894752;29;2170;-53
2023/06/01 10:02:11;;;;;;;;;;;;;;;;;;4894701;29;2138;-49
2023/06/01 10:04:39;;;;;;;;;;;;;;;;;;4893773;29;1972;-51
2023/06/01 10:07:07;;;;;;;;;;;;;;;;;;4894855;29;2255;-52
2023/06/01 10:09:38;;;;;;;;;;;;;;;;;;4895262;29;2124;-51
2023/06/01 10:12:06;;;;;;;;;;;;;;;;;;4894509;29;2041;-50
2023/06/01 10:14:33;;;;;;;;;;;;;;;;;;4898345;29;2315;-50
2023/06/01 10:17:01;;;;;;;;;;;;;;;;;;4898516;29;2148;-62
2023/06/01 10:19:29;;;;;;;;;;;;;;;;;;4898406;29;2092;-53
2023/06/01 10:21:59;;;;;;;;;;;;;;;;;;4898486;29;2502;-47
2023/06/01 10:24:28;;;;;;;;;;;;;;;;;;4888314;29;2128;-51
2023/06/01 10:27:20;;;;;;;;;;;;;;;;;;4879536;29;2192;-47
2023/06/01 10:29:48;;;;;;;;;;;;;;;;;;4879045;29;2284;-54
2023/06/01 10:32:35;;;;;;;;;;;;;;;;;;4879743;29;2193;-55
2023/06/01 10:35:02;;;;;;;;;;;;;;;;;;4878742;29;1863;-62
2023/06/01 10:37:30;;;;;;;;;;;;;;;;;;4879485;29;2263;-56
2023/06/01 10:40:16;;;;;;;;;;;;;;;;;;4879573;29;2024;-57
2023/06/01 10:42:44;;;;;;;;;;;;;;;;;;4879408;29;1796;-60
2023/06/01 10:45:30;;;;;;;;;;;;;;;;;;4879390;29;2062;-51
2023/06/01 10:47:57;;;;;;;;;;;;;;;;;;4879363;29;1901;-60
2023/06/01 10:50:24;;;;;;;;;;;;;;;;;;4878913;29;2442;-50
2023/06/01 10:52:53;;;;;;;;;;;;;;;;;;4879274;29;2083;-50
2023/06/01 10:55:21;;;;;;;;;;;;;;;;;;4898931;29;2143;-52
2023/06/01 10:57:50;;;;;;;;;;;;;;;;;;4888912;29;2464;-53
2023/06/01 11:00:18;;;;;;;;;;;;;;;;;;4879127;29;2090;-56
2023/06/01 11:02:54;;;;;;;;;;;;;;;;;;4879186;29;2094;-48
2023/06/01 11:05:35;;;;;;;;;;;;;;;;;;4878800;29;2102;-56
2023/06/01 11:08:07;;;;;;;;;;;;;;;;;;4880906;29;2342;-55
2023/06/01 11:10:53;;;;;;;;;;;;;;;;;;4897521;29;2078;-63
2023/06/01 11:13:31;;;;;;;;;;;;;;;;;;4897679;29;2433;-62
2023/06/01 11:16:07;;;;;;;;;;;;;;;;;;4897645;29;2096;-61
2023/06/01 11:18:42;;;;;;;;;;;;;;;;;;4897462;29;2099;-60
2023/06/01 11:21:10;;;;;;;;;;;;;;;;;;4897169;29;2042;-65
2023/06/01 11:23:40;;;;;;;;;;;;;;;;;;4897192;29;2265;-64
2023/06/01 11:26:08;;;;;;;;;;;;;;;;;;4897071;29;2148;-58
2023/06/01 11:28:35;;;;;;;;;;;;;;;;;;4897011;29;2482;-58
2023/06/01 11:31:02;;;;;;;;;;;;;;;;;;4880794;29;2048;-64
2023/06/01 11:33:31;;;;;;;;;;;;;;;;;;4878493;29;2343;-60
2023/06/01 11:36:04;;;;;;;;;;;;;;;;;;4877529;29;2053;-55
2023/06/01 11:38:33;;;;;;;;;;;;;;;;;;4878464;29;2453;-64
2023/06/01 11:41:02;;;;;;;;;;;;;;;;;;4878683;29;2100;-62
2023/06/01 11:43:30;;;;;;;;;;;;;;;;;;4877337;29;2441;-52
2023/06/01 11:46:08;;;;;;;;;;;;;;;;;;4895728;29;2056;-62
2023/06/01 11:49:04;;;;;;;;;;;;;;;;;;4896863;29;2428;-56
2023/06/01 11:51:32;;;;;;;;;;;;;;;;;;4897099;29;2036;-49
2023/06/01 11:54:00;;;;;;;;;;;;;;;;;;4897969;29;2274;-52
2023/06/01 11:56:29;;;;;;;;;;;;;;;;;;4896993;29;2144;-54
2023/06/01 11:58:57;;;;;;;;;;;;;;;;;;4879596;29;2475;-49
2023/06/01 12:01:24;;;;;;;;;;;;;;;;;;4878213;29;2099;-53
2023/06/01 12:03:52;;;;;;;;;;;;;;;;;;4878262;29;2181;-63
2023/06/01 12:06:20;;;;;;;;;;;;;;;;;;4877879;29;1994;-53
2023/06/01 12:08:50;;;;;;;;;;;;;;;;;;4877883;29;2098;-56
2023/06/01 12:11:19;;;;;;;;;;;;;;;;;;4878024;29;2204;-53
2023/06/01 12:13:47;;;;;;;;;;;;;;;;;;4877827;29;2064;-54
2023/06/01 12:16:16;;;;;;;;;;;;;;;;;;4878079;29;2288;-53
2023/06/01 12:18:54;;;;;;;;;;;;;;;;;;4895697;29;2238;-62
2023/06/01 12:21:21;;;;;;;;;;;;;;;;;;4896392;29;2228;-62
2023/06/01 12:23:52;;;;;;;;;;;;;;;;;;4896568;29;2152;-61
2023/06/01 12:26:19;;;;;;;;;;;;;;;;;;4896429;29;2004;-52
2023/06/01 12:28:56;;;;;;;;;;;;;;;;;;4896321;29;2207;-53
2023/06/01 12:31:27;;;;;;;;;;;;;;;;;;4896505;29;2176;-52
2023/06/01 12:33:55;;;;;;;;;;;;;;;;;;4896115;29;2082;-55
2023/06/01 12:36:33;;;;;;;;;;;;;;;;;;4895832;29;2330;-63
2023/06/01 12:39:04;;;;;;;;;;;;;;;;;;4896188;29;2297;-51
2023/06/01 12:41:35;;;;;;;;;;;;;;;;;;4896193;29;2193;-61
2023/06/01 12:44:02;;;;;;;;;;;;;;;;;;4896627;29;2061;-53
2023/06/01 12:46:35;;;;;;;;;;;;;;;;;;4896068;29;1973;-58
2023/06/01 12:49:12;;;;;;;;;;;;;;;;;;4895789;29;2211;-53
2023/06/01 12:51:40;;;;;;;;;;;;;;;;;;4895955;29;2101;-58
2023/06/01 12:54:07;;;;;;;;;;;;;;;;;;4897171;29;2221;-62
2023/06/01 12:56:34;;;;;;;;;;;;;;;;;;4896177;29;2593;-48
2023/06/01 12:59:02;;;;;;;;;;;;;;;;;;4877948;29;2336;-61
2023/06/01 13:01:29;;;;;;;;;;;;;;;;;;4877107;29;2310;-53
2023/06/01 13:03:57;;;;;;;;;;;;;;;;;;4876117;29;2025;-53
2023/06/01 13:06:25;;;;;;;;;;;;;;;;;;4877328;29;2268;-59
2023/06/01 13:08:52;;;;;;;;;;;;;;;;;;4877456;29;2029;-62
2023/06/01 13:11:22;;;;;;;;;;;;;;;;;;4876955;29;1995;-48
2023/06/01 13:13:53;;;;;;;;;;;;;;;;;;4876835;29;2532;-50
2023/06/01 13:16:20;;;;;;;;;;;;;;;;;;4877105;29;2190;-53
2023/06/01 13:18:50;;;;;;;;;;;;;;;;;;4877051;29;2327;-61
2023/06/01 13:21:17;;;;;;;;;;;;;;;;;;4876813;29;2178;-56
2023/06/01 13:23:48;;;;;;;;;;;;;;;;;;4876477;29;2255;-50
2023/06/01 13:26:15;;;;;;;;;;;;;;;;;;4876786;29;2345;-53
2023/06/01 13:28:43;;;;;;;;;;;;;;;;;;4876642;29;2098;-62
2023/06/01 13:31:10;;;;;;;;;;;;;;;;;;4876717;29;2342;-49
2023/06/01 13:33:40;;;;;;;;;;;;;;;;;;4876838;29;2258;-63
2023/06/01 13:36:07;;;;;;;;;;;;;;;;;;4876424;29;2298;-51
2023/06/01 13:38:34;;;;;;;;;;;;;;;;;;4876303;29;2391;-59
2023/06/01 13:41:01;;;;;;;;;;;;;;;;;;4876798;29;2040;-50
2023/06/01 13:43:29;;;;;;;;;;;;;;;;;;4876847;29;2142;-51
2023/06/01 13:45:58;;;;;;;;;;;;;;;;;;4876829;29;2034;-61
2023/06/01 13:48:25;;;;;;;;;;;;;;;;;;4878161;29;1994;-52
2023/06/01 13:50:52;;;;;;;;;;;;;;;;;;4880314;29;1996;-61
2023/06/01 13:53:20;;;;;;;;;;;;;;;;;;4884096;29;2155;-54
2023/06/01 13:55:47;;;;;;;;;;;;;;;;;;4898996;29;2488;-42
2023/06/01 13:58:15;;;;;;;;;;;;;;;;;;4887079;29;2138;-62
2023/06/01 14:00:42;;;;;;;;;;;;;;;;;;4880020;29;2028;-52
2023/06/01 14:03:10;;;;;;;;;;;;;;;;;;4880146;29;2151;-63
2023/06/01 14:05:38;;;;;;;;;;;;;;;;;;4879466;29;2018;-52
2023/06/01 14:08:18;;;;;;;;;;;;;;;;;;4880329;29;2101;-62
2023/06/01 14:10:45;;;;;;;;;;;;;;;;;;4879933;29;1981;-64
2023/06/01 14:13:16;;;;;;;;;;;;;;;;;;4879809;29;2404;-63
2023/06/01 14:15:44;;;;;;;;;;;;;;;;;;4880007;29;2018;-58
2023/06/01 14:18:11;;;;;;;;;;;;;;;;;;4879763;29;2369;-51
2023/06/01 14:20:41;;;;;;;;;;;;;;;;;;4878866;29;2056;-58
2023/06/01 14:23:09;;;;;;;;;;;;;;;;;;4879396;29;1814;-63
2023/06/01 14:25:37;;;;;;;;;;;;;;;;;;4879686;29;2301;-49
2023/06/01 14:28:04;;;;;;;;;;;;;;;;;;4879983;29;2156;-52
2023/06/01 14:30:31;;;;;;;;;;;;;;;;;;4879179;29;2241;-55
2023/06/01 14:33:00;;;;;;;;;;;;;;;;;;4879417;29;2099;-60
2023/06/01 14:35:27;;;;;;;;;;;;;;;;;;4878648;29;2025;-51
2023/06/01 14:37:55;;;;;;;;;;;;;;;;;;4879103;29;2402;-64
2023/06/01 14:40:22;;;;;;;;;;;;;;;;;;4879214;29;2051;-53
2023/06/01 14:42:50;;;;;;;;;;;;;;;;;;4879315;29;2459;-54
2023/06/01 14:45:19;;;;;;;;;;;;;;;;;;4878821;29;1997;-63
2023/06/01 14:47:46;;;;;;;;;;;;;;;;;;4879615;29;2231;-59
2023/06/01 14:50:16;;;;;;;;;;;;;;;;;;4879073;29;2022;-62
2023/06/01 14:52:43;;;;;;;;;;;;;;;;;;4878987;29;2031;-62
2023/06/01 14:55:12;;;;;;;;;;;;;;;;;;4894804;29;2222;-49
2023/06/01 14:57:41;;;;;;;;;;;;;;;;;;4888828;29;2287;-57
2023/06/01 15:00:08;;;;;;;;;;;;;;;;;;4877136;29;2252;-63
2023/06/01 15:02:36;;;;;;;;;;;;;;;;;;4878660;29;2154;-58
2023/06/01 15:05:03;;;;;;;;;;;;;;;;;;4879465;29;2475;-57
2023/06/01 15:07:30;;;;;;;;;;;;;;;;;;4878975;29;2017;-64
2023/06/01 15:09:57;;;;;;;;;;;;;;;;;;4879138;29;2206;-62
2023/06/01 15:12:25;;;;;;;;;;;;;;;;;;4879019;29;2254;-63
2023/06/01 15:14:53;;;;;;;;;;;;;;;;;;4879070;29;2159;-63
2023/06/01 15:17:20;;;;;;;;;;;;;;;;;;4878939;29;2278;-60
2023/06/01 15:19:48;;;;;;;;;;;;;;;;;;4878751;29;2465;-63
2023/06/01 15:22:15;;;;;;;;;;;;;;;;;;4878616;29;2475;-58
2023/06/01 15:24:42;;;;;;;;;;;;;;;;;;4878695;29;2465;-54
2023/06/01 15:27:10;;;;;;;;;;;;;;;;;;4878687;29;2272;-53
2023/06/01 15:29:37;;;;;;;;;;;;;;;;;;4878762;29;2424;-61
2023/06/01 15:32:04;;;;;;;;;;;;;;;;;;4878463;29;2367;-59
2023/06/01 15:34:32;;;;;;;;;;;;;;;;;;4878877;29;2330;-56
2023/06/01 15:36:59;;;;;;;;;;;;;;;;;;4878346;29;2303;-63
2023/06/01 15:39:26;;;;;;;;;;;;;;;;;;4878598;29;2270;-52
2023/06/01 15:41:54;;;;;;;;;;;;;;;;;;4878412;29;2374;-59
2023/06/01 15:44:23;;;;;;;;;;;;;;;;;;4878214;29;2164;-58
2023/06/01 15:46:51;;;;;;;;;;;;;;;;;;4878546;29;2321;-58
2023/06/01 15:49:18;;;;;;;;;;;;;;;;;;4878061;29;2702;-63
2023/06/01 15:51:46;;;;;;;;;;;;;;;;;;4878294;29;2308;-72
2023/06/01 15:54:13;;;;;;;;;;;;;;;;;;4887888;29;2311;-57
2023/06/01 15:56:42;;;;;;;;;;;;;;;;;;4896750;29;2056;-62
2023/06/01 15:59:14;;;;;;;;;;;;;;;;;;4880511;29;2239;-62
2023/06/01 16:01:44;;;;;;;;;;;;;;;;;;4877789;29;2064;-51
2023/06/01 16:04:11;;;;;;;;;;;;;;;;;;4877942;29;2239;-52
2023/06/01 16:06:40;;;;;;;;;;;;;;;;;;4895740;29;2337;-50
2023/06/01 16:09:07;;;;;;;;;;;;;;;;;;4897205;29;2673;-56
2023/06/01 16:11:34;;;;;;;;;;;;;;;;;;4895553;29;1908;-53
2023/06/01 16:14:02;;;;;;;;;;;;;;;;;;4902306;29;1919;-58
2023/06/01 16:16:29;;;;;;;;;;;;;;;;;;4896792;29;1804;-51
2023/06/01 16:18:56;;;;;;;;;;;;;;;;;;4895944;29;1817;-57
2023/06/01 16:21:23;;;;;;;;;;;;;;;;;;4896325;29;1996;-55
2023/06/01 16:23:50;;;;;;;;;;;;;;;;;;4896414;29;2017;-63
2023/06/01 16:26:18;;;;;;;;;;;;;;;;;;4896442;29;1883;-57
2023/06/01 16:28:49;;;;;;;;;;;;;;;;;;4896207;29;2093;-62
2023/06/01 16:31:16;;;;;;;;;;;;;;;;;;4896212;29;1912;-54
2023/06/01 16:33:43;;;;;;;;;;;;;;;;;;4896522;29;1885;-50
2023/06/01 16:36:11;;;;;;;;;;;;;;;;;;4896183;29;1870;-55
2023/06/01 16:38:38;;;;;;;;;;;;;;;;;;4896365;29;2015;-61
2023/06/01 16:41:05;;;;;;;;;;;;;;;;;;4896151;29;2239;-56
2023/06/01 16:43:32;;;;;;;;;;;;;;;;;;4895522;29;2082;-52
2023/06/01 16:46:00;;;;;;;;;;;;;;;;;;4894255;29;2204;-55
2023/06/01 16:48:27;;;;;;;;;;;;;;;;;;4893792;29;2129;-52
2023/06/01 16:50:56;;;;;;;;;;;;;;;;;;4894227;29;2057;-60
2023/06/01 16:53:23;;;;;;;;;;;;;;;;;;4894766;29;2070;-54
2023/06/01 16:55:50;;;;;;;;;;;;;;;;;;4894551;29;2164;-58
2023/06/01 16:58:17;;;;;;;;;;;;;;;;;;4881790;29;2032;-54
2023/06/01 17:00:45;;;;;;;;;;;;;;;;;;4876864;29;2157;-61
2023/06/01 17:03:12;;;;;;;;;;;;;;;;;;4877437;29;2293;-51
2023/06/01 17:05:40;;;;;;;;;;;;;;;;;;4877311;29;1980;-62
2023/06/01 17:08:07;;;;;;;;;;;;;;;;;;4876973;29;2301;-62
2023/06/01 17:10:35;;;;;;;;;;;;;;;;;;4877061;29;2409;-61
2023/06/01 17:13:02;;;;;;;;;;;;;;;;;;4878458;29;2113;-58
2023/06/01 17:15:30;;;;;;;;;;;;;;;;;;4898959;29;1982;-56
2023/06/01 17:17:57;;;;;;;;;;;;;;;;;;4895469;29;2242;-63